Decoded Metar for KDEN (DENVER in CO, USA) (IATA:DEN) | Meteo·Mobile Aviation Weather
aviador You're here:

KDEN Decoded Metar

DENVER in CO, USA
Report Time2018-09-23 11:53:00
UTC Time2018-09-23 12:32:07
Flight Rules vfr VFR
Wind220° at 10 kt
W.Decomp.*RWY 25: 7.9 kt HW 6.2 kt LCW
RWY 17: 7.4 kt HW 6.7 kt RCW
RWY 26: 6.7 kt HW 7.4 kt LCW
RWY 16: 6.2 kt HW 7.9 kt RCW
W.Rank220° ranks 2
Current wind is above 220° avg. (9.0)
Visibility9999 m
Phenomena:N/A
Clouds:N/A
Expected CloudBase > 6,800 ft AGL from Temp-Dew spread
CeilingNone
Temp14°C (ISA +10)
Dew Point-3°C (31% RH)
AAT8.0°C
QNH1018 hPa
Density Alt6,417 ft
Elevation5,381 ft
Report Wrong Elevation
Raw Report
KDEN 231153Z 22010KT 10SM CLR 14/M03 A3007 RMK AO2 SLP105
T01391033 10189 20133 53001=

Extra information for KDEN:More info

Metar Taf Metar & Taf Last 4 Metars F.Rules Stats Wind Profile Meteogram Temp Stats Airport Information Weather charts Add Link Nearby VenuesMetar ALERT Operation Metar Decoded Social comments

AIRNAV info for KDEN